7  °C
Temperatuur
2  °C
  Dauwpunt
71  %
   Vochtigheid
Temp | Dauwpunt | Vochtigheid
10  km/h
Windsnelheid
180°
Pal Zuid

Windsnelheid
Helder
Barometer 1017.92 (hPa)
Zicht 10.0 (km)

Huidige situatie
EHGG
Locatie Eelde 6km
Metar :EHGG 172055Z AUTO 18005KT 9999 NSC 07/02 Q1018 NOSIG
do 1 jan 02:00

Vliegveld
  Metar Aviation API Data Provided by https://www.checkwx.com/ CSS/SVG/PHP scripts by weather34.com © 2015-2019